createdAt,value
2023-05-09T00:03:59.862Z,101729.80
2023-05-09T00:09:02.775Z,101718.00
2023-05-09T00:14:05.766Z,101717.00
2023-05-09T00:19:08.698Z,101714.40
2023-05-09T00:24:11.543Z,101711.00
2023-05-09T00:29:14.406Z,101711.80
2023-05-09T00:34:17.291Z,101712.20
2023-05-09T00:39:21.206Z,101707.00
2023-05-09T00:44:24.234Z,101701.20
2023-05-09T00:49:27.486Z,101697.60
2023-05-09T00:54:30.553Z,101698.20
2023-05-09T00:59:33.435Z,101692.80
2023-05-09T01:04:36.284Z,101685.60
2023-05-09T01:09:59.639Z,101692.20
2023-05-09T01:15:28.814Z,101689.00
2023-05-09T01:20:51.997Z,101687.60
2023-05-09T01:26:16.412Z,101684.80
2023-05-09T01:31:20.363Z,101683.00
2023-05-09T01:36:29.702Z,101681.00
2023-05-09T01:41:37.693Z,101684.00
2023-05-09T01:46:40.907Z,101682.60
2023-05-09T01:51:45.312Z,101683.20
2023-05-09T01:56:49.663Z,101674.80
2023-05-09T02:01:55.264Z,101679.60
2023-05-09T02:06:59.671Z,101676.20
2023-05-09T02:12:04.631Z,101674.20
2023-05-09T02:17:09.625Z,101673.20
2023-05-09T02:22:13.437Z,101676.60
2023-05-09T02:27:17.026Z,101678.20
2023-05-09T02:32:25.838Z,101678.60
2023-05-09T02:37:29.821Z,101679.40
2023-05-09T02:42:32.678Z,101682.20
2023-05-09T02:47:35.595Z,101691.60
2023-05-09T02:52:38.602Z,101687.80
2023-05-09T02:57:41.492Z,101687.00
2023-05-09T03:02:44.412Z,101685.60
2023-05-09T03:07:47.553Z,101680.20
2023-05-09T03:12:50.458Z,101686.20
2023-05-09T03:17:53.288Z,101677.80
2023-05-09T03:22:56.218Z,101687.40
2023-05-09T03:27:58.997Z,101689.20
2023-05-09T03:33:01.957Z,101689.40
2023-05-09T03:38:05.796Z,101683.40
2023-05-09T03:43:08.757Z,101689.20
2023-05-09T03:48:12.214Z,101686.60
2023-05-09T03:53:15.274Z,101697.60
2023-05-09T03:58:19.453Z,101695.40
2023-05-09T04:03:22.514Z,101696.80
2023-05-09T04:08:27.160Z,101696.20
2023-05-09T04:13:31.057Z,101702.80
2023-05-09T04:18:33.990Z,101704.40
2023-05-09T04:23:36.987Z,101704.20
2023-05-09T04:28:39.782Z,101709.20
2023-05-09T04:33:42.621Z,101708.00
2023-05-09T04:38:45.488Z,101711.20
2023-05-09T04:43:48.341Z,101717.60
2023-05-09T04:48:51.212Z,101714.00
2023-05-09T04:53:54.072Z,101711.80
2023-05-09T04:58:56.923Z,101718.20
2023-05-09T05:03:59.858Z,101727.60
2023-05-09T05:09:02.926Z,101727.40
2023-05-09T05:14:05.809Z,101724.40
2023-05-09T05:19:08.652Z,101724.60
2023-05-09T05:24:11.551Z,101726.40
2023-05-09T05:29:14.338Z,101721.00
2023-05-09T05:34:17.345Z,101726.00
2023-05-09T05:39:20.192Z,101726.00
2023-05-09T05:44:23.043Z,101723.00
2023-05-09T05:49:25.954Z,101722.40
2023-05-09T05:54:28.747Z,101720.40
2023-05-09T05:59:31.576Z,101717.40
2023-05-09T06:04:34.449Z,101722.60
2023-05-09T06:09:37.301Z,101716.40
2023-05-09T06:14:40.138Z,101720.40
2023-05-09T06:19:42.944Z,101718.40
2023-05-09T06:24:45.878Z,101722.20
2023-05-09T06:29:48.785Z,101724.20
2023-05-09T06:34:52.678Z,101723.20
2023-05-09T06:39:55.554Z,101719.80
2023-05-09T06:44:58.510Z,101716.20
2023-05-09T06:50:01.414Z,101719.20
2023-05-09T06:55:05.236Z,101714.60
2023-05-09T07:00:09.578Z,101715.40
2023-05-09T07:05:12.693Z,101716.00
2023-05-09T07:10:15.864Z,101718.00
2023-05-09T07:15:28.803Z,101709.60
2023-05-09T07:20:39.974Z,101708.80
2023-05-09T07:25:43.925Z,101705.00
2023-05-09T07:30:48.060Z,101705.20
2023-05-09T07:35:53.030Z,101692.00
2023-05-09T07:40:56.021Z,101691.00
2023-05-09T07:45:58.961Z,101685.40
2023-05-09T07:51:01.958Z,101681.20
2023-05-09T07:56:06.814Z,101678.40
2023-05-09T08:01:09.789Z,101676.80
2023-05-09T08:06:12.755Z,101664.80
2023-05-09T08:11:15.550Z,101663.40
2023-05-09T08:16:18.446Z,101661.60
2023-05-09T08:21:22.449Z,101663.60
2023-05-09T08:26:26.736Z,101656.20
2023-05-09T08:31:29.705Z,101642.00
2023-05-09T08:36:32.637Z,101642.40
2023-05-09T08:41:36.277Z,101640.80
2023-05-09T08:46:44.308Z,101635.20
2023-05-09T08:51:48.450Z,101630.20
2023-05-09T08:56:51.870Z,101619.60
2023-05-09T09:01:55.395Z,101607.20
2023-05-09T09:06:59.769Z,101603.20
2023-05-09T09:12:09.813Z,101608.00
2023-05-09T09:17:20.703Z,101603.00
2023-05-09T09:22:25.072Z,101595.20
2023-05-09T09:27:28.813Z,101595.20
2023-05-09T09:32:35.798Z,101586.80
2023-05-09T09:37:41.722Z,101588.60
2023-05-09T09:42:48.075Z,101580.60
2023-05-09T09:47:51.183Z,101577.80
2023-05-09T09:52:56.611Z,101573.20
2023-05-09T09:57:59.618Z,101566.60
2023-05-09T10:03:02.574Z,101563.20
2023-05-09T10:08:07.655Z,101556.80
2023-05-09T10:13:12.490Z,101556.60
2023-05-09T10:18:20.309Z,101558.80
2023-05-09T10:23:24.785Z,101542.00
2023-05-09T10:28:34.606Z,101542.40
2023-05-09T10:33:49.463Z,101527.40
2023-05-09T10:38:55.261Z,101530.20
2023-05-09T10:43:59.771Z,101531.60
2023-05-09T10:49:04.040Z,101513.20
2023-05-09T10:54:33.462Z,101516.20
2023-05-09T10:59:40.748Z,101502.00
2023-05-09T11:04:44.893Z,101500.60
2023-05-09T11:09:52.678Z,101490.80
2023-05-09T11:15:07.530Z,101483.20
2023-05-09T11:20:10.916Z,101467.00
2023-05-09T11:25:15.479Z,101464.80
2023-05-09T11:30:20.669Z,101464.00
2023-05-09T11:35:26.851Z,101460.40
2023-05-09T11:40:31.434Z,101446.20
2023-05-09T11:45:34.404Z,101441.60
2023-05-09T11:50:37.421Z,101441.80
2023-05-09T11:55:41.358Z,101427.80
2023-05-09T12:00:46.329Z,101418.80
2023-05-09T12:05:49.365Z,101414.00
2023-05-09T12:10:52.303Z,101407.00
2023-05-09T12:16:01.988Z,101399.00
2023-05-09T12:21:07.198Z,101392.80
2023-05-09T12:26:11.050Z,101381.00
2023-05-09T12:31:14.220Z,101386.80
2023-05-09T12:36:17.187Z,101382.00
2023-05-09T12:41:34.929Z,101377.60
2023-05-09T12:46:40.227Z,101369.40
2023-05-09T12:51:50.613Z,101358.00
2023-05-09T12:56:58.480Z,101344.80
2023-05-09T13:02:02.042Z,101342.60
2023-05-09T13:07:10.545Z,101336.60
2023-05-09T13:12:15.613Z,101328.80
2023-05-09T13:17:18.524Z,101326.00
2023-05-09T13:22:21.493Z,101326.00
2023-05-09T13:27:25.325Z,101323.60
2023-05-09T13:32:30.281Z,101313.40
2023-05-09T13:37:36.208Z,101308.40
2023-05-09T13:42:39.809Z,101294.00
2023-05-09T13:47:42.828Z,101285.60
2023-05-09T13:52:46.003Z,101282.60
2023-05-09T13:57:48.970Z,101276.00
2023-05-09T14:02:52.812Z,101266.40
2023-05-09T14:07:55.934Z,101268.80
2023-05-09T14:12:59.647Z,101255.80
2023-05-09T14:18:03.134Z,101256.80
2023-05-09T14:23:07.184Z,101248.00
2023-05-09T14:28:10.910Z,101250.00
2023-05-09T14:33:14.539Z,101245.40
2023-05-09T14:38:18.360Z,101236.20
2023-05-09T14:43:22.357Z,101235.40
2023-05-09T14:48:25.430Z,101226.60
2023-05-09T14:53:29.090Z,101226.80
2023-05-09T14:58:34.345Z,101223.60
2023-05-09T15:03:39.579Z,101215.60
2023-05-09T15:08:42.630Z,101196.40
2023-05-09T15:13:45.492Z,101205.00
2023-05-09T15:18:48.522Z,101194.80
2023-05-09T15:23:51.362Z,101194.80
2023-05-09T15:28:54.268Z,101187.00
2023-05-09T15:33:57.106Z,101181.60
2023-05-09T15:39:00.768Z,101171.80
2023-05-09T15:44:03.668Z,101172.20
2023-05-09T15:49:06.859Z,101165.40
2023-05-09T15:54:10.141Z,101167.40
2023-05-09T15:59:13.298Z,101158.60
2023-05-09T16:04:16.251Z,101152.80
2023-05-09T16:09:19.524Z,101139.20
2023-05-09T16:14:22.625Z,101138.20
2023-05-09T16:19:26.516Z,101135.40
2023-05-09T16:24:29.499Z,101127.40
2023-05-09T16:29:32.329Z,101121.00
2023-05-09T16:34:36.053Z,101118.60
2023-05-09T16:39:39.037Z,101114.00
2023-05-09T16:44:41.988Z,101112.20
2023-05-09T16:49:44.876Z,101110.60
2023-05-09T16:54:50.513Z,101103.80
2023-05-09T16:59:53.942Z,101095.60
2023-05-09T17:04:57.669Z,101097.00
2023-05-09T17:10:00.578Z,101089.60
2023-05-09T17:15:03.725Z,101083.80
2023-05-09T17:20:09.463Z,101081.20
2023-05-09T17:25:12.583Z,101079.20
2023-05-09T17:30:16.040Z,101079.60
2023-05-09T17:35:20.865Z,101075.00
2023-05-09T17:40:24.095Z,101073.60
2023-05-09T17:45:27.038Z,101071.20
2023-05-09T17:50:30.941Z,101064.00
2023-05-09T17:55:33.775Z,101065.00
2023-05-09T18:00:36.701Z,101067.80
2023-05-09T18:05:40.198Z,101074.00
2023-05-09T18:10:43.574Z,101075.40
2023-05-09T18:15:46.574Z,101068.80
2023-05-09T18:20:49.597Z,101068.20
2023-05-09T18:25:54.176Z,101073.20
2023-05-09T18:31:01.371Z,101073.40
2023-05-09T18:36:05.899Z,101069.00
2023-05-09T18:41:11.462Z,101072.40
2023-05-09T18:46:21.038Z,101074.40
2023-05-09T18:51:25.566Z,101074.40
2023-05-09T18:56:28.747Z,101070.00
2023-05-09T19:01:32.369Z,101077.00
2023-05-09T19:06:35.581Z,101076.00
2023-05-09T19:11:38.647Z,101076.60
2023-05-09T19:16:41.983Z,101075.00
2023-05-09T19:27:05.906Z,101072.20
2023-05-09T19:32:08.813Z,101073.40
2023-05-09T19:37:11.786Z,101066.60
2023-05-09T19:42:15.145Z,101061.20
2023-05-09T19:47:19.790Z,101060.20
2023-05-09T19:52:23.449Z,101057.40
2023-05-09T19:57:26.297Z,101062.40
2023-05-09T20:02:30.657Z,101058.60
2023-05-09T20:07:33.853Z,101065.00
2023-05-09T20:12:36.776Z,101069.60
2023-05-09T20:17:39.610Z,101070.60
2023-05-09T20:22:42.923Z,101070.60
2023-05-09T20:27:45.915Z,101074.80
2023-05-09T20:32:48.964Z,101076.40
2023-05-09T20:37:51.880Z,101073.80
2023-05-09T20:42:54.801Z,101078.00
2023-05-09T20:48:01.740Z,101075.80
2023-05-09T20:53:07.032Z,101076.20
2023-05-09T20:58:10.264Z,101076.00
2023-05-09T21:03:14.142Z,101077.60
2023-05-09T21:08:17.103Z,101078.80
2023-05-09T21:13:20.209Z,101076.00
2023-05-09T21:18:23.357Z,101076.80
2023-05-09T21:23:26.236Z,101076.40
2023-05-09T21:28:30.098Z,101070.80
2023-05-09T21:33:32.912Z,101073.00
2023-05-09T21:38:35.713Z,101072.80
2023-05-09T21:43:38.715Z,101073.00
2023-05-09T21:48:41.589Z,101067.40
2023-05-09T21:53:44.423Z,101070.80
2023-05-09T21:58:47.278Z,101075.40
2023-05-09T22:03:50.240Z,101075.80
2023-05-09T22:08:53.417Z,101076.40
2023-05-09T22:13:56.464Z,101077.60
2023-05-09T22:18:59.223Z,101072.80
2023-05-09T22:24:02.116Z,101075.20
2023-05-09T22:29:05.009Z,101068.40
2023-05-09T22:34:07.875Z,101063.40
2023-05-09T22:39:11.171Z,101057.40
2023-05-09T22:44:14.257Z,101058.80
2023-05-09T22:49:17.557Z,101054.00
2023-05-09T22:54:22.344Z,101061.20
2023-05-09T22:59:25.343Z,101048.40
2023-05-09T23:04:28.348Z,101049.00
2023-05-09T23:09:31.125Z,101050.00
2023-05-09T23:14:33.952Z,101045.80
2023-05-09T23:19:37.308Z,101046.00
2023-05-09T23:24:40.146Z,101045.80
2023-05-09T23:29:43.539Z,101049.00
2023-05-09T23:34:46.370Z,101042.40
2023-05-09T23:39:49.208Z,101043.60
2023-05-09T23:44:52.096Z,101048.20
2023-05-09T23:49:54.896Z,101040.20
2023-05-09T23:54:57.816Z,101033.20
